PWSweather.com
Personal Weather Stations
Station Observations
OBERT
Bodensee Hinterland, OberteuringenDE

Bodensee HinterlandOberteuringenDE

Lat: 47.714675, Lon: 9.44447

Elevation: 1427

Station Type: Wunder Weather Station

High Low Average
Temperature 42.0°F5.6°C 37.9°F3.3°C 39.9°F4.4°C
Dew Point 42.0°F5.6°C 37.9°F3.3°C 39.9°F4.4°C
Winds 6.6 mph 10.6 kmh Calm Calm 1.0 mph ENE1.6 kmh ENE
Wind Gusts 10.6 mph17.1 kmh -- 4.0 mph6.4 kmh
Humidity 100% 100% 100%
Pressure 29.77 in1008.1 mb 29.61 in1002.7 mb -
Precipitation 0.00 in0.0 mm - -
Hour Temp Dew Point Humidity Winds Wind Gusts Pressure Precip Precip Rate Daily Precip Total
12:28 AM 42.0°F5.6°C 42.0°F5.6°C 100% Calm Calm -- 29.70 in1005.8 mb 0.00 in0.0 mm 0.00 in0.0 mm 0.00 in0.0 mm
12:58 AM 41.7°F5.4°C 41.7°F5.4°C 100% Calm Calm -- 29.70 in1005.8 mb 0.00 in0.0 mm 0.00 in0.0 mm 0.00 in0.0 mm
01:28 AM 41.3°F5.2°C 41.3°F5.2°C 100% Calm Calm -- 29.69 in1005.4 mb 0.00 in0.0 mm 0.00 in0.0 mm 0.00 in0.0 mm
01:58 AM 41.1°F5.1°C 41.1°F5.1°C 100% Calm Calm 3.4 mph5.5 kmh 29.69 in1005.4 mb 0.00 in0.0 mm 0.00 in0.0 mm 0.00 in0.0 mm
02:28 AM 41.1°F5.1°C 41.1°F5.1°C 100% Calm Calm -- 29.69 in1005.4 mb 0.00 in0.0 mm 0.00 in0.0 mm 0.00 in0.0 mm
02:58 AM 41.0°F5.0°C 41.0°F5.0°C 100% Calm Calm -- 29.67 in1004.7 mb 0.00 in0.0 mm 0.00 in0.0 mm 0.00 in0.0 mm
03:28 AM 40.8°F4.9°C 40.8°F4.9°C 100% Calm Calm -- 29.67 in1004.7 mb 0.00 in0.0 mm 0.00 in0.0 mm 0.00 in0.0 mm
03:58 AM 40.6°F4.8°C 40.6°F4.8°C 100% Calm Calm -- 29.66 in1004.4 mb 0.00 in0.0 mm 0.00 in0.0 mm 0.00 in0.0 mm
04:28 AM 40.6°F4.8°C 40.6°F4.8°C 100% Calm Calm -- 29.65 in1004.1 mb 0.00 in0.0 mm 0.00 in0.0 mm 0.00 in0.0 mm
04:58 AM 40.6°F4.8°C 40.6°F4.8°C 100% Calm Calm -- 29.64 in1003.7 mb 0.00 in0.0 mm 0.00 in0.0 mm 0.00 in0.0 mm
05:28 AM 40.6°F4.8°C 40.6°F4.8°C 100% 4.1 mph SE6.6 kmh SE 8.7 mph14.0 kmh 29.64 in1003.7 mb 0.00 in0.0 mm 0.00 in0.0 mm 0.00 in0.0 mm
05:58 AM 40.6°F4.8°C 40.6°F4.8°C 100% 4.1 mph SSE6.6 kmh SSE 6.5 mph10.5 kmh 29.63 in1003.4 mb 0.00 in0.0 mm 0.00 in0.0 mm 0.00 in0.0 mm
06:28 AM 40.8°F4.9°C 40.8°F4.9°C 100% 3.5 mph SSE5.6 kmh SSE 8.1 mph13.0 kmh 29.62 in1003.0 mb 0.00 in0.0 mm 0.00 in0.0 mm 0.00 in0.0 mm
06:58 AM 40.6°F4.8°C 40.6°F4.8°C 100% 2.9 mph S4.7 kmh S 8.4 mph13.5 kmh 29.62 in1003.0 mb 0.00 in0.0 mm 0.00 in0.0 mm 0.00 in0.0 mm
07:28 AM 41.0°F5.0°C 41.0°F5.0°C 100% 0.9 mph SW1.4 kmh SW 6.2 mph10.0 kmh 29.62 in1003.0 mb 0.00 in0.0 mm 0.00 in0.0 mm 0.00 in0.0 mm
07:58 AM 40.8°F4.9°C 40.8°F4.9°C 100% 0.9 mph SSE1.4 kmh SSE 4.6 mph7.4 kmh 29.62 in1003.0 mb 0.00 in0.0 mm 0.00 in0.0 mm 0.00 in0.0 mm
08:28 AM 40.8°F4.9°C 40.8°F4.9°C 100% 1.1 mph SSW1.8 kmh SSW 3.1 mph5.0 kmh 29.62 in1003.0 mb 0.00 in0.0 mm 0.00 in0.0 mm 0.00 in0.0 mm
08:58 AM 41.1°F5.1°C 41.1°F5.1°C 100% Calm Calm -- 29.62 in1003.0 mb 0.00 in0.0 mm 0.00 in0.0 mm 0.00 in0.0 mm
09:28 AM 41.5°F5.3°C 41.5°F5.3°C 100% Calm Calm -- 29.62 in1003.0 mb 0.00 in0.0 mm 0.00 in0.0 mm 0.00 in0.0 mm
09:58 AM 41.1°F5.1°C 41.1°F5.1°C 100% 0.8 mph N1.3 kmh N 4.0 mph6.4 kmh 29.62 in1003.0 mb 0.00 in0.0 mm 0.00 in0.0 mm 0.00 in0.0 mm
10:28 AM 41.1°F5.1°C 41.1°F5.1°C 100% 1.4 mph N2.3 kmh N 3.1 mph5.0 kmh 29.62 in1003.0 mb 0.00 in0.0 mm 0.00 in0.0 mm 0.00 in0.0 mm
10:58 AM 41.0°F5.0°C 41.0°F5.0°C 100% 3.8 mph N6.1 kmh N 5.3 mph8.5 kmh 29.63 in1003.4 mb 0.00 in0.0 mm 0.00 in0.0 mm 0.00 in0.0 mm
11:28 AM 40.8°F4.9°C 40.8°F4.9°C 100% 2.9 mph 4.7 kmh 5.3 mph8.5 kmh 29.62 in1003.0 mb 0.00 in0.0 mm 0.00 in0.0 mm 0.00 in0.0 mm
11:58 AM 41.1°F5.1°C 41.1°F5.1°C 100% 3.5 mph N5.6 kmh N 4.6 mph7.4 kmh 29.62 in1003.0 mb 0.00 in0.0 mm 0.00 in0.0 mm 0.00 in0.0 mm
12:28 PM 41.1°F5.1°C 41.1°F5.1°C 100% 2.7 mph 4.3 kmh 7.8 mph12.6 kmh 29.61 in1002.7 mb 0.00 in0.0 mm 0.00 in0.0 mm 0.00 in0.0 mm
12:58 PM 41.0°F5.0°C 41.0°F5.0°C 100% 3.4 mph N5.5 kmh N 8.1 mph13.0 kmh 29.61 in1002.7 mb 0.00 in0.0 mm 0.00 in0.0 mm 0.00 in0.0 mm
01:28 PM 40.1°F4.5°C 40.1°F4.5°C 100% 4.4 mph N7.1 kmh N 7.1 mph11.4 kmh 29.62 in1003.0 mb 0.00 in0.0 mm 0.00 in0.0 mm 0.00 in0.0 mm
01:58 PM 38.6°F3.7°C 38.6°F3.7°C 100% 6.6 mph 10.6 kmh 10.6 mph17.1 kmh 29.64 in1003.7 mb 0.00 in0.0 mm 0.00 in0.0 mm 0.00 in0.0 mm
02:28 PM 38.1°F3.4°C 38.1°F3.4°C 100% 3.3 mph 5.3 kmh 8.7 mph14.0 kmh 29.65 in1004.1 mb 0.00 in0.0 mm 0.00 in0.0 mm 0.00 in0.0 mm
02:58 PM 38.8°F3.8°C 38.8°F3.8°C 100% 5.6 mph 9.0 kmh 9.0 mph14.5 kmh 29.65 in1004.1 mb 0.00 in0.0 mm 0.00 in0.0 mm 0.00 in0.0 mm
03:28 PM 39.0°F3.9°C 39.0°F3.9°C 100% 1.6 mph 2.6 kmh 7.8 mph12.6 kmh 29.65 in1004.1 mb 0.00 in0.0 mm 0.00 in0.0 mm 0.00 in0.0 mm
03:58 PM 38.3°F3.5°C 38.3°F3.5°C 100% 3.8 mph N6.1 kmh N 6.8 mph10.9 kmh 29.67 in1004.7 mb 0.00 in0.0 mm 0.00 in0.0 mm 0.00 in0.0 mm
04:10 PM 38.1°F3.4°C 38.1°F3.4°C 100% 2.6 mph N4.2 kmh N 7.1 mph11.4 kmh 29.67 in1004.7 mb 0.00 in0.0 mm 0.00 in0.0 mm 0.00 in0.0 mm
04:40 PM 37.9°F3.3°C 37.9°F3.3°C 100% 2.2 mph N3.5 kmh N 7.1 mph11.4 kmh 29.68 in1005.1 mb 0.00 in0.0 mm 0.00 in0.0 mm 0.00 in0.0 mm
05:10 PM 38.3°F3.5°C 38.3°F3.5°C 100% Calm Calm -- 29.69 in1005.4 mb 0.00 in0.0 mm 0.00 in0.0 mm 0.00 in0.0 mm
05:40 PM 38.3°F3.5°C 38.3°F3.5°C 100% 1.6 mph N2.6 kmh N 3.4 mph5.5 kmh 29.69 in1005.4 mb 0.00 in0.0 mm 0.00 in0.0 mm 0.00 in0.0 mm
06:10 PM 38.4°F3.6°C 38.4°F3.6°C 100% Calm Calm -- 29.70 in1005.8 mb 0.00 in0.0 mm 0.00 in0.0 mm 0.00 in0.0 mm
06:40 PM 38.3°F3.5°C 38.3°F3.5°C 100% 2.3 mph 3.7 kmh 5.0 mph8.0 kmh 29.70 in1005.8 mb 0.00 in0.0 mm 0.00 in0.0 mm 0.00 in0.0 mm
07:10 PM 38.4°F3.6°C 38.4°F3.6°C 100% Calm Calm -- 29.71 in1006.1 mb 0.00 in0.0 mm 0.00 in0.0 mm 0.00 in0.0 mm
07:40 PM 38.4°F3.6°C 38.4°F3.6°C 100% Calm Calm -- 29.71 in1006.1 mb 0.00 in0.0 mm 0.00 in0.0 mm 0.00 in0.0 mm
08:10 PM 38.8°F3.8°C 38.8°F3.8°C 100% Calm Calm -- 29.73 in1006.8 mb 0.00 in0.0 mm 0.00 in0.0 mm 0.00 in0.0 mm
08:40 PM 38.8°F3.8°C 38.8°F3.8°C 100% Calm Calm -- 29.74 in1007.1 mb 0.00 in0.0 mm 0.00 in0.0 mm 0.00 in0.0 mm
09:10 PM 39.3°F4.1°C 39.3°F4.1°C 100% Calm Calm -- 29.76 in1007.8 mb 0.00 in0.0 mm 0.00 in0.0 mm 0.00 in0.0 mm
09:40 PM 39.3°F4.1°C 39.3°F4.1°C 100% Calm Calm 0.3 mph0.5 kmh 29.77 in1008.1 mb 0.00 in0.0 mm 0.00 in0.0 mm 0.00 in0.0 mm
10:10 PM 39.3°F4.1°C 39.3°F4.1°C 100% Calm Calm -- 29.77 in1008.1 mb 0.00 in0.0 mm 0.00 in0.0 mm 0.00 in0.0 mm
10:40 PM 39.0°F3.9°C 39.0°F3.9°C 100% 0.7 mph N1.1 kmh N 6.5 mph10.5 kmh 29.77 in1008.1 mb 0.00 in0.0 mm 0.00 in0.0 mm 0.00 in0.0 mm
11:10 PM 37.9°F3.3°C 37.9°F3.3°C 100% 0.5 mph N0.8 kmh N 3.7 mph6.0 kmh 29.75 in1007.5 mb 0.00 in0.0 mm 0.00 in0.0 mm 0.00 in0.0 mm
11:40 PM 37.9°F3.3°C 37.9°F3.3°C 100% 0.8 mph N1.3 kmh N 3.4 mph5.5 kmh 29.77 in1008.1 mb 0.00 in0.0 mm 0.00 in0.0 mm 0.00 in0.0 mm